Weatherby, Missouri
Current Conditions -  °F | °C
As of 3:10 AM on Friday 24 Oct 2014 (Local Time) from KSTJ Reporting Station
Moderate Fog Moderate Fog  
Wind Chill: 53°   Ceiling: 800
Heat Index: 53°   Visibility: 0.5mi
Dew Point: 53°   Wind: 6mph
Humidity: 100%   Direction: 150°SSE
Pressure: 30.05"   Gusts: NA
Location:  39.91°N, 94.24°W
Report Text: KSTJ 240810Z AUTO 15005KT 1/2SM R35/P6000FT FG VV008 12/12 A3005 RMK AO2 T01170117
Loading
Personal Weather Stations






























Interactive Weather Map
Tropical Storm Tracking
New forecast layout! Learn more

10-Day Weather Forecast

Advertisements
Track Severe Weather on mobile